createdAt,value
2023-05-24T00:00:43.492Z,88.70
2023-05-24T00:03:11.103Z,88.40
2023-05-24T00:05:41.066Z,87.90
2023-05-24T00:08:10.361Z,87.80
2023-05-24T00:10:37.239Z,87.50
2023-05-24T00:13:04.250Z,87.50
2023-05-24T00:15:30.989Z,87.70
2023-05-24T00:17:57.852Z,87.80
2023-05-24T00:20:25.130Z,88.40
2023-05-24T00:22:52.444Z,89.00
2023-05-24T00:25:22.356Z,88.60
2023-05-24T00:27:49.101Z,88.40
2023-05-24T00:30:16.072Z,88.10
2023-05-24T00:32:42.939Z,87.70
2023-05-24T00:35:11.481Z,87.70
2023-05-24T00:37:40.143Z,87.10
2023-05-24T00:40:07.790Z,87.40
2023-05-24T00:42:37.915Z,87.70
2023-05-24T00:45:05.448Z,88.10
2023-05-24T00:47:33.752Z,87.90
2023-05-24T00:50:01.249Z,88.00
2023-05-24T00:52:28.518Z,88.00
2023-05-24T00:54:55.926Z,88.30
2023-05-24T00:57:23.915Z,88.60
2023-05-24T00:59:51.370Z,89.00
2023-05-24T01:02:21.015Z,89.00
2023-05-24T01:04:50.911Z,89.10
2023-05-24T01:07:23.658Z,89.00
2023-05-24T01:10:08.851Z,89.30
2023-05-24T01:13:00.929Z,89.50
2023-05-24T01:15:45.560Z,90.20
2023-05-24T01:18:26.243Z,90.30
2023-05-24T01:21:18.613Z,90.30
2023-05-24T01:24:02.917Z,90.20
2023-05-24T01:26:42.498Z,89.70
2023-05-24T01:29:10.770Z,90.00
2023-05-24T01:31:38.400Z,90.00
2023-05-24T01:34:06.319Z,90.40
2023-05-24T01:36:33.126Z,90.00
2023-05-24T01:38:59.979Z,90.00
2023-05-24T01:41:48.379Z,89.60
2023-05-24T01:44:40.035Z,89.80
2023-05-24T01:47:18.632Z,89.30
2023-05-24T01:49:50.674Z,88.90
2023-05-24T01:52:21.198Z,89.00
2023-05-24T01:54:59.852Z,89.10
2023-05-24T01:57:28.331Z,89.10
2023-05-24T01:59:57.137Z,89.00
2023-05-24T02:02:24.421Z,88.80
2023-05-24T02:04:52.674Z,88.90
2023-05-24T02:07:19.505Z,89.00
2023-05-24T02:09:46.322Z,88.60
2023-05-24T02:12:13.294Z,88.80
2023-05-24T02:14:42.703Z,89.20
2023-05-24T02:17:10.017Z,89.10
2023-05-24T02:19:37.192Z,89.40
2023-05-24T02:22:07.290Z,89.30
2023-05-24T02:24:34.148Z,89.20
2023-05-24T02:27:01.163Z,88.80
2023-05-24T02:29:27.965Z,88.90
2023-05-24T02:31:56.700Z,88.50
2023-05-24T02:34:24.521Z,88.80
2023-05-24T02:36:54.282Z,88.20
2023-05-24T02:39:21.453Z,88.70
2023-05-24T02:41:48.308Z,88.50
2023-05-24T02:44:15.567Z,88.70
2023-05-24T02:46:42.511Z,88.80
2023-05-24T02:49:10.454Z,88.90
2023-05-24T02:51:37.526Z,89.40
2023-05-24T02:54:04.408Z,89.80
2023-05-24T02:56:31.768Z,90.10
2023-05-24T02:59:00.892Z,89.90
2023-05-24T03:01:32.531Z,89.80
2023-05-24T03:03:59.468Z,89.80
2023-05-24T03:06:26.721Z,89.80
2023-05-24T03:08:53.601Z,90.00
2023-05-24T03:11:22.454Z,89.80
2023-05-24T03:13:49.570Z,89.80
2023-05-24T03:16:17.153Z,90.00
2023-05-24T03:18:47.436Z,89.70
2023-05-24T03:21:15.426Z,89.40
2023-05-24T03:23:42.589Z,89.80
2023-05-24T03:26:09.684Z,90.10
2023-05-24T03:28:36.780Z,90.20
2023-05-24T03:31:04.345Z,89.80
2023-05-24T03:33:32.126Z,89.30
2023-05-24T03:35:59.191Z,89.40
2023-05-24T03:38:26.303Z,89.30
2023-05-24T03:40:53.394Z,88.90
2023-05-24T03:43:20.277Z,88.90
2023-05-24T03:45:52.094Z,89.10
2023-05-24T03:48:20.959Z,89.00
2023-05-24T03:50:48.335Z,88.80
2023-05-24T03:53:16.489Z,87.90
2023-05-24T03:55:43.446Z,88.00
2023-05-24T03:58:14.313Z,88.20
2023-05-24T04:00:41.341Z,88.20
2023-05-24T04:03:09.113Z,88.10
2023-05-24T04:05:38.617Z,88.60
2023-05-24T04:08:05.404Z,88.50
2023-05-24T04:10:34.041Z,88.70
2023-05-24T04:13:00.881Z,88.40
2023-05-24T04:15:27.844Z,88.70
2023-05-24T04:17:55.685Z,88.70
2023-05-24T04:20:25.445Z,88.80
2023-05-24T04:22:52.583Z,88.60
2023-05-24T04:25:20.765Z,89.00
2023-05-24T04:27:51.046Z,89.30
2023-05-24T04:30:18.048Z,89.60
2023-05-24T04:32:44.868Z,89.30
2023-05-24T04:35:12.053Z,89.60
2023-05-24T04:37:40.505Z,89.80
2023-05-24T04:40:08.530Z,89.90
2023-05-24T04:42:35.916Z,89.50
2023-05-24T04:45:06.128Z,89.20
2023-05-24T04:47:33.116Z,89.80
2023-05-24T04:50:00.107Z,90.30
2023-05-24T04:52:27.788Z,90.10
2023-05-24T04:54:55.629Z,89.60
2023-05-24T04:57:25.679Z,89.30
2023-05-24T04:59:52.491Z,89.10
2023-05-24T05:02:22.997Z,89.30
2023-05-24T05:04:50.168Z,89.10
2023-05-24T05:07:17.567Z,89.00
2023-05-24T05:09:44.568Z,88.70
2023-05-24T05:12:16.385Z,88.50
2023-05-24T05:14:44.580Z,88.70
2023-05-24T05:17:11.389Z,88.40
2023-05-24T05:19:38.126Z,88.40
2023-05-24T05:22:11.307Z,88.90
2023-05-24T05:24:41.319Z,89.40
2023-05-24T05:27:08.129Z,89.70
2023-05-24T05:29:34.921Z,89.20
2023-05-24T05:32:01.922Z,89.10
2023-05-24T05:34:28.756Z,89.00
2023-05-24T05:36:58.643Z,89.00
2023-05-24T05:39:25.699Z,88.90
2023-05-24T05:41:53.055Z,89.10
2023-05-24T05:44:20.439Z,89.30
2023-05-24T05:46:47.186Z,90.10
2023-05-24T05:49:15.353Z,89.40
2023-05-24T05:51:42.669Z,89.10
2023-05-24T05:54:14.308Z,88.70
2023-05-24T05:56:45.501Z,88.90
2023-05-24T05:59:13.108Z,89.00
2023-05-24T06:01:41.067Z,89.20
2023-05-24T06:04:10.695Z,88.80
2023-05-24T06:06:37.610Z,89.10
2023-05-24T06:09:04.619Z,89.30
2023-05-24T06:11:31.670Z,89.50
2023-05-24T06:14:01.556Z,89.90
2023-05-24T06:16:28.743Z,89.60
2023-05-24T06:19:05.271Z,90.00
2023-05-24T06:21:33.039Z,89.40
2023-05-24T06:24:02.462Z,89.40
2023-05-24T06:26:29.859Z,89.70
2023-05-24T06:28:56.750Z,89.90
2023-05-24T06:31:23.835Z,89.40
2023-05-24T06:34:02.613Z,89.40
2023-05-24T06:36:30.081Z,89.50
2023-05-24T06:38:56.825Z,89.50
2023-05-24T06:41:23.780Z,89.00
2023-05-24T06:43:50.843Z,89.20
2023-05-24T06:46:17.626Z,89.30
2023-05-24T06:48:44.611Z,89.00
2023-05-24T06:51:11.579Z,88.80
2023-05-24T06:53:38.614Z,89.40
2023-05-24T06:56:05.716Z,89.20
2023-05-24T06:58:32.451Z,89.50
2023-05-24T07:00:59.260Z,89.70
2023-05-24T07:03:26.429Z,89.30
2023-05-24T07:05:53.213Z,89.10
2023-05-24T07:08:19.995Z,88.70
2023-05-24T07:10:46.798Z,88.20
2023-05-24T07:13:13.796Z,88.00
2023-05-24T07:15:43.597Z,87.30
2023-05-24T07:18:10.594Z,87.00
2023-05-24T07:20:37.872Z,87.00
2023-05-24T07:23:05.083Z,87.60
2023-05-24T07:25:32.687Z,87.10
2023-05-24T07:28:02.766Z,86.90
2023-05-24T07:30:32.697Z,86.50
2023-05-24T07:33:00.214Z,87.30
2023-05-24T07:35:28.648Z,87.20
2023-05-24T07:37:55.627Z,87.40
2023-05-24T07:40:23.122Z,86.80
2023-05-24T07:42:50.029Z,86.90
2023-05-24T07:45:16.982Z,87.10
2023-05-24T07:47:43.846Z,87.00
2023-05-24T07:50:11.651Z,86.70
2023-05-24T07:52:38.829Z,86.80
2023-05-24T07:55:06.573Z,86.50
2023-05-24T07:57:33.694Z,86.50
2023-05-24T08:00:07.123Z,86.50
2023-05-24T08:02:38.556Z,86.70
2023-05-24T08:05:05.947Z,87.30
2023-05-24T08:07:36.280Z,86.60
2023-05-24T08:10:03.887Z,86.20
2023-05-24T08:12:31.318Z,86.10
2023-05-24T08:14:58.348Z,86.70
2023-05-24T08:17:25.226Z,86.50
2023-05-24T08:19:52.289Z,86.30
2023-05-24T08:22:19.794Z,86.00
2023-05-24T08:24:46.578Z,85.90
2023-05-24T08:27:14.040Z,85.50
2023-05-24T08:29:41.583Z,84.90
2023-05-24T08:32:09.745Z,85.00
2023-05-24T08:34:37.592Z,84.80
2023-05-24T08:37:05.671Z,84.70
2023-05-24T08:39:32.488Z,84.80
2023-05-24T08:44:41.192Z,84.80
2023-05-24T08:47:10.403Z,84.80
2023-05-24T08:49:39.304Z,84.60
2023-05-24T08:52:07.692Z,84.20
2023-05-24T08:54:38.384Z,83.60
2023-05-24T08:57:06.747Z,83.90
2023-05-24T08:59:33.623Z,83.40
2023-05-24T09:02:02.751Z,83.30
2023-05-24T09:04:30.245Z,83.60
2023-05-24T09:06:58.503Z,82.90
2023-05-24T09:09:28.312Z,82.40
2023-05-24T09:11:59.172Z,82.30
2023-05-24T09:14:25.965Z,82.10
2023-05-24T09:16:53.096Z,81.70
2023-05-24T09:19:20.749Z,81.50
2023-05-24T09:21:49.642Z,81.50
2023-05-24T09:24:16.936Z,81.30
2023-05-24T09:26:43.719Z,82.60
2023-05-24T09:29:10.518Z,83.00
2023-05-24T09:31:39.621Z,82.60
2023-05-24T09:34:11.631Z,82.50
2023-05-24T09:36:43.040Z,82.70
2023-05-24T09:39:11.638Z,82.70
2023-05-24T09:41:39.105Z,82.00
2023-05-24T09:44:09.669Z,82.30
2023-05-24T09:46:39.370Z,81.70
2023-05-24T09:49:09.579Z,81.40
2023-05-24T09:51:39.630Z,80.60
2023-05-24T09:54:06.791Z,80.60
2023-05-24T09:56:34.773Z,80.10
2023-05-24T09:59:08.811Z,80.70
2023-05-24T10:01:36.217Z,79.90
2023-05-24T10:04:09.333Z,80.20
2023-05-24T10:06:38.344Z,79.60
2023-05-24T10:09:06.446Z,79.70
2023-05-24T10:11:36.850Z,79.00
2023-05-24T10:14:07.018Z,78.20
2023-05-24T10:16:33.881Z,77.60
2023-05-24T10:19:00.852Z,78.50
2023-05-24T10:21:29.289Z,78.50
2023-05-24T10:23:59.660Z,78.40
2023-05-24T10:26:32.070Z,78.70
2023-05-24T10:29:06.246Z,78.70
2023-05-24T10:31:36.320Z,78.80
2023-05-24T10:34:08.343Z,78.10
2023-05-24T10:36:36.906Z,77.20
2023-05-24T10:39:04.227Z,77.50
2023-05-24T10:41:40.928Z,76.70
2023-05-24T10:44:13.373Z,77.00
2023-05-24T10:47:04.369Z,76.80
2023-05-24T10:49:31.457Z,75.90
2023-05-24T10:52:07.209Z,75.50
2023-05-24T10:54:34.155Z,75.00
2023-05-24T10:57:05.217Z,76.40
2023-05-24T10:59:38.838Z,76.30
2023-05-24T11:02:16.499Z,74.80
2023-05-24T11:04:47.007Z,74.40
2023-05-24T11:07:15.377Z,74.30
2023-05-24T11:09:46.923Z,73.90
2023-05-24T11:12:16.548Z,73.70
2023-05-24T11:14:49.565Z,74.80
2023-05-24T11:17:16.888Z,74.30
2023-05-24T11:19:52.295Z,73.20
2023-05-24T11:22:29.679Z,73.90
2023-05-24T11:25:04.165Z,73.90
2023-05-24T11:27:33.148Z,72.40
2023-05-24T11:30:02.203Z,73.90
2023-05-24T11:32:29.219Z,74.80
2023-05-24T11:34:56.533Z,73.20
2023-05-24T11:37:38.496Z,73.40
2023-05-24T11:40:13.147Z,73.40
2023-05-24T11:42:41.064Z,72.40
2023-05-24T11:45:10.120Z,71.00
2023-05-24T11:47:40.263Z,71.50
2023-05-24T11:50:07.921Z,71.30
2023-05-24T11:52:40.076Z,70.70
2023-05-24T11:55:07.952Z,70.60
2023-05-24T11:57:42.956Z,71.20
2023-05-24T12:00:17.086Z,72.10
2023-05-24T12:02:44.479Z,71.30
2023-05-24T12:05:15.965Z,71.70
2023-05-24T12:08:04.305Z,72.40
2023-05-24T12:10:34.924Z,72.20
2023-05-24T12:13:07.164Z,72.90
2023-05-24T12:15:35.563Z,73.00
2023-05-24T12:18:23.792Z,71.80
2023-05-24T12:21:06.517Z,71.90
2023-05-24T12:23:39.446Z,71.70
2023-05-24T12:26:09.181Z,71.50
2023-05-24T12:28:54.526Z,71.70
2023-05-24T12:31:22.656Z,71.50
2023-05-24T12:34:07.625Z,72.20
2023-05-24T12:36:47.063Z,71.00
2023-05-24T12:39:22.474Z,70.10
2023-05-24T12:42:05.337Z,70.90
2023-05-24T12:44:35.715Z,70.70
2023-05-24T12:47:06.892Z,70.70
2023-05-24T12:49:37.183Z,69.60
2023-05-24T12:52:04.735Z,69.90
2023-05-24T12:54:32.007Z,69.40
2023-05-24T12:57:05.657Z,69.10
2023-05-24T12:59:34.122Z,69.70
2023-05-24T13:02:04.377Z,69.40
2023-05-24T13:04:33.743Z,69.70
2023-05-24T13:07:05.859Z,70.20
2023-05-24T13:09:41.489Z,69.60
2023-05-24T13:12:19.567Z,69.70
2023-05-24T13:14:52.804Z,69.00
2023-05-24T13:17:20.862Z,69.20
2023-05-24T13:19:50.456Z,68.80
2023-05-24T13:22:21.241Z,68.70
2023-05-24T13:24:51.540Z,69.40
2023-05-24T13:27:19.068Z,68.90
2023-05-24T13:29:59.699Z,70.10
2023-05-24T13:32:28.462Z,70.70
2023-05-24T13:34:55.461Z,69.90
2023-05-24T13:37:23.164Z,70.60
2023-05-24T13:39:53.720Z,71.10
2023-05-24T13:42:21.472Z,70.20
2023-05-24T13:44:48.518Z,70.70
2023-05-24T13:47:31.055Z,70.70
2023-05-24T13:50:04.058Z,70.80
2023-05-24T13:52:32.852Z,70.30
2023-05-24T13:55:04.937Z,70.00
2023-05-24T13:57:51.315Z,70.00
2023-05-24T14:00:23.301Z,70.40
2023-05-24T14:06:15.532Z,69.40
2023-05-24T14:08:42.746Z,69.10
2023-05-24T14:11:11.248Z,68.80
2023-05-24T14:16:15.057Z,70.30
2023-05-24T14:18:58.007Z,70.20
2023-05-24T14:22:02.556Z,69.70
2023-05-24T14:24:29.316Z,69.30
2023-05-24T14:26:56.009Z,70.10
2023-05-24T14:29:22.813Z,69.70
2023-05-24T14:31:49.854Z,69.80
2023-05-24T14:34:16.727Z,69.00
2023-05-24T14:36:45.319Z,69.90
2023-05-24T14:39:12.028Z,70.60
2023-05-24T14:41:38.818Z,69.40
2023-05-24T14:44:05.675Z,69.70
2023-05-24T14:46:32.499Z,69.80
2023-05-24T14:49:00.039Z,69.80
2023-05-24T14:51:26.735Z,69.60
2023-05-24T14:53:53.859Z,68.60
2023-05-24T14:56:20.528Z,68.30
2023-05-24T14:58:47.245Z,68.00
2023-05-24T15:01:14.091Z,68.20
2023-05-24T15:03:41.534Z,68.60
2023-05-24T15:06:08.589Z,68.90
2023-05-24T15:08:35.328Z,68.00
2023-05-24T15:11:02.426Z,68.80
2023-05-24T15:13:29.224Z,68.50
2023-05-24T15:16:00.553Z,68.30
2023-05-24T15:18:29.736Z,69.20
2023-05-24T15:20:56.539Z,68.90
2023-05-24T15:23:24.846Z,68.70
2023-05-24T15:25:51.599Z,68.30
2023-05-24T15:28:18.538Z,67.70
2023-05-24T15:30:46.872Z,67.90
2023-05-24T15:33:14.562Z,67.70
2023-05-24T15:35:41.523Z,67.30
2023-05-24T15:38:08.261Z,67.40
2023-05-24T15:40:34.986Z,67.60
2023-05-24T15:43:02.100Z,68.10
2023-05-24T15:45:28.845Z,67.80
2023-05-24T15:47:56.079Z,67.30
2023-05-24T15:50:35.978Z,67.40
2023-05-24T15:53:09.833Z,67.80
2023-05-24T15:55:37.207Z,68.60
2023-05-24T15:58:04.277Z,69.30
2023-05-24T16:00:31.038Z,69.40
2023-05-24T16:02:58.112Z,68.50
2023-05-24T16:05:24.923Z,68.50
2023-05-24T16:07:51.761Z,68.70
2023-05-24T16:10:18.660Z,68.50
2023-05-24T16:12:46.214Z,68.40
2023-05-24T16:15:12.942Z,68.60
2023-05-24T16:17:39.722Z,68.80
2023-05-24T16:20:07.022Z,68.50
2023-05-24T16:22:35.264Z,68.00
2023-05-24T16:25:01.932Z,68.10
2023-05-24T16:27:28.716Z,68.30
2023-05-24T16:29:55.520Z,68.40
2023-05-24T16:32:22.299Z,67.90
2023-05-24T16:34:56.732Z,67.60
2023-05-24T16:37:24.089Z,67.70
2023-05-24T16:39:51.010Z,67.60
2023-05-24T16:42:17.812Z,68.00
2023-05-24T16:44:44.510Z,67.00
2023-05-24T16:47:11.293Z,66.70
2023-05-24T16:49:38.011Z,67.30
2023-05-24T16:52:04.920Z,67.40
2023-05-24T16:54:31.605Z,67.50
2023-05-24T16:56:59.732Z,68.20
2023-05-24T16:59:26.428Z,67.90
2023-05-24T17:01:53.307Z,68.20
2023-05-24T17:04:20.212Z,68.80
2023-05-24T17:06:47.101Z,68.80
2023-05-24T17:09:14.034Z,69.60
2023-05-24T17:11:40.800Z,69.20
2023-05-24T17:14:07.501Z,69.10
2023-05-24T17:16:34.554Z,69.70
2023-05-24T17:19:01.362Z,69.50
2023-05-24T17:21:29.661Z,69.00
2023-05-24T17:23:56.750Z,69.50
2023-05-24T17:26:24.366Z,69.80
2023-05-24T17:28:51.745Z,70.00
2023-05-24T17:31:18.534Z,70.40
2023-05-24T17:33:45.304Z,70.80
2023-05-24T17:36:11.967Z,71.50
2023-05-24T17:38:39.347Z,72.00
2023-05-24T17:41:10.084Z,72.70
2023-05-24T17:43:39.091Z,72.60
2023-05-24T17:46:06.490Z,73.40
2023-05-24T17:48:37.839Z,73.60
2023-05-24T17:51:07.041Z,74.00
2023-05-24T17:53:35.137Z,74.20
2023-05-24T17:56:03.371Z,74.40
2023-05-24T17:58:30.896Z,74.60
2023-05-24T18:00:57.817Z,75.20
2023-05-24T18:03:24.592Z,75.50
2023-05-24T18:05:51.332Z,75.60
2023-05-24T18:08:18.168Z,75.80
2023-05-24T18:10:45.235Z,76.30
2023-05-24T18:13:11.990Z,75.70
2023-05-24T18:15:38.680Z,75.60
2023-05-24T18:18:05.568Z,76.10
2023-05-24T18:20:32.381Z,76.30
2023-05-24T18:22:59.251Z,77.70
2023-05-24T18:25:26.067Z,78.10
2023-05-24T18:27:52.756Z,78.70
2023-05-24T18:30:19.642Z,78.70
2023-05-24T18:33:03.585Z,78.60
2023-05-24T18:35:32.109Z,77.80
2023-05-24T18:37:59.426Z,78.30
2023-05-24T18:40:26.247Z,78.80
2023-05-24T18:42:52.965Z,78.40
2023-05-24T18:45:19.741Z,79.10
2023-05-24T18:47:46.550Z,78.80
2023-05-24T18:50:13.377Z,78.90
2023-05-24T18:52:40.323Z,78.90
2023-05-24T18:55:10.601Z,79.20
2023-05-24T18:57:37.960Z,79.70
2023-05-24T19:00:06.968Z,79.60
2023-05-24T19:02:38.864Z,79.50
2023-05-24T19:05:07.195Z,79.30
2023-05-24T19:07:35.353Z,79.70
2023-05-24T19:10:02.584Z,79.30
2023-05-24T19:12:29.963Z,79.70
2023-05-24T19:14:56.770Z,79.40
2023-05-24T19:17:25.105Z,79.50
2023-05-24T19:19:52.207Z,79.20
2023-05-24T19:22:19.131Z,79.60
2023-05-24T19:24:45.988Z,79.60
2023-05-24T19:27:13.249Z,79.70
2023-05-24T19:29:40.159Z,79.90
2023-05-24T19:32:08.180Z,80.20
2023-05-24T19:34:37.016Z,80.40
2023-05-24T19:37:04.100Z,80.30
2023-05-24T19:39:30.852Z,80.30
2023-05-24T19:41:57.599Z,80.00
2023-05-24T19:44:24.416Z,80.20
2023-05-24T19:46:51.204Z,80.10
2023-05-24T19:49:17.918Z,80.40
2023-05-24T19:51:44.601Z,80.80
2023-05-24T19:54:11.389Z,80.90
2023-05-24T19:56:38.108Z,80.90
2023-05-24T19:59:04.835Z,80.70
2023-05-24T20:01:31.705Z,81.10
2023-05-24T20:03:58.587Z,81.40
2023-05-24T20:06:26.263Z,81.90
2023-05-24T20:08:53.314Z,82.10
2023-05-24T20:11:20.160Z,81.90
2023-05-24T20:13:46.849Z,82.50
2023-05-24T20:16:13.624Z,83.00
2023-05-24T20:18:40.741Z,83.00
2023-05-24T20:21:07.417Z,82.80
2023-05-24T20:23:34.132Z,82.50
2023-05-24T20:26:01.004Z,82.30
2023-05-24T20:28:31.253Z,82.20
2023-05-24T20:30:58.830Z,82.50
2023-05-24T20:33:25.588Z,82.20
2023-05-24T20:35:54.005Z,82.40
2023-05-24T20:38:22.039Z,82.40
2023-05-24T20:40:48.828Z,82.20
2023-05-24T20:43:15.820Z,82.70
2023-05-24T20:45:42.659Z,82.10
2023-05-24T20:48:09.540Z,82.20
2023-05-24T20:50:36.393Z,82.00
2023-05-24T20:53:03.140Z,82.20
2023-05-24T20:55:31.088Z,82.30
2023-05-24T20:57:57.819Z,82.40
2023-05-24T21:00:24.563Z,82.90
2023-05-24T21:02:51.404Z,83.00
2023-05-24T21:05:18.664Z,82.60
2023-05-24T21:07:45.450Z,82.20
2023-05-24T21:10:18.998Z,82.20
2023-05-24T21:12:46.320Z,82.30
2023-05-24T21:15:13.156Z,82.50
2023-05-24T21:17:39.936Z,82.50
2023-05-24T21:20:07.473Z,82.40
2023-05-24T21:22:34.294Z,82.30
2023-05-24T21:25:01.386Z,82.60
2023-05-24T21:27:28.137Z,82.70
2023-05-24T21:29:54.898Z,82.70
2023-05-24T21:32:21.585Z,83.30
2023-05-24T21:34:49.700Z,83.50
2023-05-24T21:37:17.290Z,82.90
2023-05-24T21:39:44.291Z,82.80
2023-05-24T21:42:11.170Z,82.70
2023-05-24T21:44:38.131Z,82.90
2023-05-24T21:47:05.270Z,83.10
2023-05-24T21:49:31.934Z,83.00
2023-05-24T21:51:58.646Z,83.00
2023-05-24T21:54:25.455Z,83.20
2023-05-24T21:56:52.169Z,83.00
2023-05-24T21:59:18.892Z,83.10
2023-05-24T22:01:45.932Z,82.90
2023-05-24T22:04:12.792Z,83.20
2023-05-24T22:06:42.653Z,83.40
2023-05-24T22:09:09.667Z,83.50
2023-05-24T22:11:36.451Z,83.60
2023-05-24T22:14:03.341Z,83.80
2023-05-24T22:16:30.395Z,83.80
2023-05-24T22:18:57.170Z,84.00
2023-05-24T22:21:23.942Z,83.90
2023-05-24T22:23:51.388Z,83.80
2023-05-24T22:26:18.092Z,84.00
2023-05-24T22:28:55.021Z,84.00
2023-05-24T22:31:22.340Z,84.10
2023-05-24T22:33:49.752Z,84.20
2023-05-24T22:36:16.497Z,84.50
2023-05-24T22:38:43.979Z,84.60
2023-05-24T22:41:10.923Z,84.50
2023-05-24T22:43:37.642Z,84.50
2023-05-24T22:46:07.804Z,84.50
2023-05-24T22:48:36.899Z,84.80
2023-05-24T22:51:03.769Z,84.80
2023-05-24T22:53:30.604Z,84.90
2023-05-24T22:55:57.468Z,84.90
2023-05-24T22:58:24.704Z,85.00
2023-05-24T23:00:51.956Z,84.50
2023-05-24T23:03:18.698Z,84.40
2023-05-24T23:05:45.714Z,85.20
2023-05-24T23:08:15.368Z,85.40
2023-05-24T23:10:45.488Z,85.40
2023-05-24T23:13:17.650Z,85.60
2023-05-24T23:15:45.097Z,85.40
2023-05-24T23:18:15.763Z,85.60
2023-05-24T23:20:44.551Z,85.60
2023-05-24T23:23:12.283Z,85.60
2023-05-24T23:25:39.263Z,85.90
2023-05-24T23:28:06.023Z,85.80
2023-05-24T23:30:32.823Z,86.30
2023-05-24T23:32:59.701Z,86.50
2023-05-24T23:35:26.547Z,86.40
2023-05-24T23:37:53.797Z,86.80
2023-05-24T23:40:20.764Z,87.10
2023-05-24T23:42:47.666Z,87.70
2023-05-24T23:45:15.640Z,87.60
2023-05-24T23:47:42.430Z,87.70
2023-05-24T23:50:09.883Z,87.60
2023-05-24T23:52:36.684Z,87.20
2023-05-24T23:55:04.021Z,86.70
2023-05-24T23:57:30.875Z,86.80
2023-05-24T23:59:57.625Z,86.40
